Time;durP1;ratioP1;P1;durP2;ratioP2;P2;SDS_P1;SDS_P2;PMS_P1;PMS_P2;Temp;Humidity;BMP_temperature;BMP_pressure;BME280_temperature;BME280_humidity;BME280_pressure;Samples;Min_cycle;Max_cycle;Signal;HPM_P1;HPM_P2
2023/01/03 00:01:40;;;;;;;2.43;0.80;;;;;;;9.94;100.00;97278.88;5039346;28;20225;-74
2023/01/03 00:04:07;;;;;;;0.90;0.60;;;;;;;9.86;100.00;97273.50;5039767;28;20201;-74
2023/01/03 00:06:36;;;;;;;1.27;0.60;;;;;;;9.86;100.00;97286.69;5038990;28;20208;-73
2023/01/03 00:09:05;;;;;;;0.90;0.80;;;;;;;9.84;100.00;97282.53;5039761;28;20247;-73
2023/01/03 00:14:20;;;;;;;1.00;0.80;;;;;;;9.83;100.00;97296.66;5038462;28;20578;-74
2023/01/03 00:16:50;;;;;;;1.30;0.90;;;;;;;9.83;100.00;97294.03;5039129;28;20197;-74
2023/01/03 00:19:17;;;;;;;1.43;0.70;;;;;;;9.69;100.00;97299.78;5039274;28;20225;-74
2023/01/03 00:21:43;;;;;;;1.27;0.80;;;;;;;9.72;100.00;97308.22;5039290;28;20669;-75
2023/01/03 00:24:10;;;;;;;1.37;0.90;;;;;;;9.65;100.00;97303.69;5038532;28;20216;-72
2023/01/03 00:26:39;;;;;;;1.00;0.70;;;;;;;9.68;100.00;97292.03;5038899;28;20221;-74
2023/01/03 00:29:05;;;;;;;0.77;0.77;;;;;;;9.61;100.00;97294.44;5039207;28;20201;-74
2023/01/03 00:31:32;;;;;;;1.97;0.73;;;;;;;9.53;100.00;97298.75;5038715;28;20225;-74
2023/01/03 00:33:58;;;;;;;2.33;1.50;;;;;;;9.58;100.00;97299.13;5038434;28;20689;-74
2023/01/03 00:36:25;;;;;;;1.00;0.90;;;;;;;9.58;100.00;97304.41;5039109;28;20201;-73
2023/01/03 00:38:51;;;;;;;1.53;0.90;;;;;;;9.53;100.00;97301.38;5038749;28;20234;-73
2023/01/03 00:41:19;;;;;;;1.80;1.13;;;;;;;9.56;100.00;97307.19;5038831;28;20232;-74
2023/01/03 00:43:48;;;;;;;1.80;1.03;;;;;;;9.68;100.00;97298.13;5038731;28;20197;-73
2023/01/03 00:46:17;;;;;;;1.53;1.00;;;;;;;9.54;100.00;97310.94;5038585;28;20662;-73
2023/01/03 00:48:43;;;;;;;4.60;1.10;;;;;;;9.36;100.00;97320.56;5038487;28;20197;-74
2023/01/03 00:51:12;;;;;;;1.17;0.93;;;;;;;9.60;100.00;97323.50;5038916;28;20227;-74
2023/01/03 00:53:40;;;;;;;1.67;1.03;;;;;;;9.66;100.00;97328.19;5037553;28;20673;-74
2023/01/03 00:56:08;;;;;;;1.40;0.90;;;;;;;9.71;100.00;97313.59;5038971;28;20205;-73
2023/01/03 00:58:36;;;;;;;1.60;1.00;;;;;;;9.53;100.00;97312.72;5038639;28;20227;-74
2023/01/03 01:01:09;;;;;;;1.30;1.00;;;;;;;9.68;100.00;97326.25;5038342;28;20221;-74
2023/01/03 01:03:36;;;;;;;3.50;0.90;;;;;;;9.58;100.00;97326.28;5038211;28;20208;-73
2023/01/03 01:06:11;;;;;;;2.40;0.90;;;;;;;9.73;100.00;97317.75;5038641;28;20212;-73
2023/01/03 01:08:37;;;;;;;1.50;0.90;;;;;;;9.63;100.00;97302.16;5038555;28;20594;-73
2023/01/03 01:11:03;;;;;;;1.43;0.80;;;;;;;9.65;100.00;97332.63;5038134;28;20221;-74
2023/01/03 01:13:31;;;;;;;1.23;0.90;;;;;;;9.64;100.00;97324.88;5038651;28;20213;-75
2023/01/03 01:16:01;;;;;;;2.10;0.90;;;;;;;9.67;100.00;97327.22;5038038;28;20696;-74
2023/01/03 01:18:29;;;;;;;1.17;0.90;;;;;;;9.52;100.00;97336.56;5038078;28;20236;-74
2023/01/03 01:20:55;;;;;;;2.37;1.10;;;;;;;9.38;100.00;97335.22;5038497;28;20217;-73
2023/01/03 01:23:22;;;;;;;1.50;1.00;;;;;;;9.41;100.00;97342.00;5038110;28;20674;-74
2023/01/03 01:25:48;;;;;;;1.63;1.20;;;;;;;9.42;100.00;97338.38;5038043;28;20208;-74
2023/01/03 01:28:15;;;;;;;2.70;1.20;;;;;;;9.33;100.00;97332.19;5038836;28;20216;-73
2023/01/03 01:30:41;;;;;;;2.03;1.27;;;;;;;9.38;100.00;97340.50;5037909;28;20217;-73
2023/01/03 01:33:08;;;;;;;2.53;1.40;;;;;;;9.38;100.00;97335.22;5038041;28;20209;-74
2023/01/03 01:35:35;;;;;;;3.07;1.50;;;;;;;9.46;100.00;97337.97;5036970;28;20209;-74
2023/01/03 01:38:02;;;;;;;6.57;1.33;;;;;;;9.43;100.00;97338.25;5038066;28;20229;-73
2023/01/03 01:40:30;;;;;;;1.37;1.17;;;;;;;9.40;100.00;97329.81;5038225;28;20240;-74
2023/01/03 01:45:46;;;;;;;1.17;1.00;;;;;;;9.23;100.00;97333.19;5037082;28;20212;-72
2023/01/03 01:48:13;;;;;;;1.40;1.20;;;;;;;9.24;100.00;97332.19;5037627;28;20693;-73
2023/01/03 01:50:44;;;;;;;1.63;1.07;;;;;;;9.28;100.00;97329.16;5037057;28;20217;-75
2023/01/03 01:53:14;;;;;;;5.37;1.30;;;;;;;9.32;100.00;97332.34;5037249;28;20205;-73
2023/01/03 01:55:45;;;;;;;1.50;1.00;;;;;;;9.34;100.00;97339.13;5037259;28;20208;-74
2023/01/03 01:58:12;;;;;;;2.43;1.20;;;;;;;9.26;100.00;97332.91;5037061;28;20221;-73
2023/01/03 02:00:40;;;;;;;2.33;1.20;;;;;;;9.29;100.00;97336.09;5037382;28;20231;-73
2023/01/03 02:03:07;;;;;;;1.23;1.03;;;;;;;9.10;100.00;97335.31;5037921;28;20252;-73
2023/01/03 02:05:37;;;;;;;2.50;1.00;;;;;;;9.08;100.00;97336.41;5036673;28;20209;-73
2023/01/03 02:08:05;;;;;;;1.30;0.90;;;;;;;9.08;100.00;97331.97;5037335;28;20205;-73
2023/01/03 02:10:56;;;;;;;1.20;1.00;;;;;;;9.00;100.00;97334.50;5037285;28;20221;-73
2023/01/03 02:13:31;;;;;;;2.20;1.13;;;;;;;9.03;100.00;97328.94;5037184;28;20201;-75
2023/01/03 02:16:19;;;;;;;4.20;1.30;;;;;;;9.14;100.00;97332.22;5036439;28;20297;-74
2023/01/03 02:18:54;;;;;;;3.03;1.10;;;;;;;9.06;100.00;97328.66;5037081;28;20639;-74
2023/01/03 02:22:04;;;;;;;1.10;1.00;;;;;;;9.13;100.00;97333.19;5036640;28;20731;-73
2023/01/03 02:24:55;;;;;;;1.67;1.13;;;;;;;9.15;100.00;97340.94;5036323;28;20215;-73
2023/01/03 02:27:48;;;;;;;1.93;1.23;;;;;;;9.10;100.00;97346.63;5036998;28;20201;-73
2023/01/03 02:30:32;;;;;;;2.67;1.30;;;;;;;8.94;100.00;97342.94;5036587;28;20276;-73
2023/01/03 02:33:10;;;;;;;1.50;1.20;;;;;;;9.02;100.00;97342.22;5036702;28;20208;-73
2023/01/03 02:35:43;;;;;;;1.93;1.23;;;;;;;9.07;100.00;97346.09;5036412;28;20200;-73
2023/01/03 02:38:19;;;;;;;1.50;1.10;;;;;;;9.11;100.00;97344.81;5036830;28;20978;-74
2023/01/03 02:40:55;;;;;;;2.27;1.17;;;;;;;9.05;100.00;97344.56;5037251;28;20255;-74
2023/01/03 02:43:32;;;;;;;5.50;1.40;;;;;;;9.05;100.00;97348.03;5036719;28;20719;-74
2023/01/03 02:46:07;;;;;;;3.13;1.20;;;;;;;9.10;100.00;97346.63;5036207;28;20231;-73
2023/01/03 02:48:46;;;;;;;2.33;1.20;;;;;;;9.18;100.00;97335.41;5036720;28;20197;-73
2023/01/03 02:51:18;;;;;;;2.47;1.30;;;;;;;8.99;100.00;97337.25;5037446;28;20232;-73
2023/01/03 02:53:47;;;;;;;2.87;1.20;;;;;;;8.87;100.00;97328.69;5035923;28;20255;-74
2023/01/03 02:56:19;;;;;;;1.63;1.00;;;;;;;8.91;100.00;97323.97;5036456;28;20220;-73
2023/01/03 02:58:50;;;;;;;5.77;1.00;;;;;;;8.93;100.00;97316.78;5037557;28;21153;-74
2023/01/03 03:01:19;;;;;;;3.70;1.10;;;;;;;8.92;100.00;97328.25;5040427;28;20228;-73
2023/01/03 03:03:47;;;;;;;1.07;0.90;;;;;;;8.90;100.00;97324.97;5039316;28;20207;-74
2023/01/03 03:06:21;;;;;;;5.93;1.20;;;;;;;8.98;100.00;97333.78;5041178;28;20201;-73
2023/01/03 03:08:48;;;;;;;2.00;1.00;;;;;;;8.88;100.00;97329.50;5040730;28;20199;-73
2023/01/03 03:14:05;;;;;;;3.23;1.20;;;;;;;9.00;100.00;97329.22;5039977;28;20265;-74
2023/01/03 03:16:49;;;;;;;2.47;1.20;;;;;;;8.92;100.00;97341.41;5038704;28;20208;-73
2023/01/03 03:25:01;;;;;;;1.30;0.90;;;;;;;8.98;100.00;97339.03;5039496;28;20216;-73
2023/01/03 03:30:19;;;;;;;1.80;1.00;;;;;;;8.88;100.00;97343.47;5040510;28;20271;-74
2023/01/03 03:32:50;;;;;;;1.80;1.20;;;;;;;8.85;100.00;97335.06;5040138;28;20213;-73
2023/01/03 03:35:20;;;;;;;1.50;0.90;;;;;;;8.84;100.00;97339.47;5039535;28;20212;-73
2023/01/03 03:37:52;;;;;;;1.47;1.13;;;;;;;8.87;100.00;97326.06;5040944;28;20228;-73
2023/01/03 03:46:01;;;;;;;3.50;1.27;;;;;;;8.88;100.00;97343.47;5039539;28;20212;-73
2023/01/03 03:49:36;;;;;;;3.33;1.30;;;;;;;8.85;100.00;97335.88;5039842;28;20236;-73
2023/01/03 03:51:23;;;;;;;2.27;1.27;;;;;;;8.67;100.00;97327.03;5039378;28;20684;-73
2023/01/03 03:53:51;;;;;;;3.63;1.30;;;;;;;8.81;100.00;97318.75;5039414;28;21026;-73
2023/01/03 03:56:23;;;;;;;1.30;1.00;;;;;;;8.83;100.00;97315.97;5040043;28;20217;-73
2023/01/03 03:58:56;;;;;;;1.10;1.00;;;;;;;8.84;100.00;97328.13;5039367;28;20988;-73
2023/01/03 04:01:24;;;;;;;1.30;1.20;;;;;;;8.84;100.00;97334.22;5040178;28;20233;-73
2023/01/03 04:03:57;;;;;;;1.60;1.17;;;;;;;8.87;100.00;97339.22;5039393;28;20564;-73
2023/01/03 04:06:30;;;;;;;4.80;1.40;;;;;;;8.90;100.00;97336.28;5039039;28;20213;-73
2023/01/03 04:08:56;;;;;;;1.77;1.00;;;;;;;8.80;100.00;97351.25;5039655;28;20200;-72
2023/01/03 04:11:23;;;;;;;3.30;1.10;;;;;;;8.82;100.00;97354.56;5039654;28;20232;-73
2023/01/03 04:13:49;;;;;;;6.20;1.50;;;;;;;8.85;100.00;97350.84;5039081;28;20212;-73
2023/01/03 04:16:16;;;;;;;2.93;1.40;;;;;;;8.88;100.00;97342.66;5038866;28;20666;-73
2023/01/03 04:18:42;;;;;;;3.00;1.60;;;;;;;8.80;100.00;97343.34;5039694;28;20221;-73
2023/01/03 04:21:10;;;;;;;6.23;1.67;;;;;;;8.72;100.00;97335.34;5039603;28;20248;-73
2023/01/03 04:23:37;;;;;;;2.00;1.40;;;;;;;8.54;100.00;97336.16;5038194;28;20673;-73
2023/01/03 04:26:03;;;;;;;2.90;1.30;;;;;;;8.60;100.00;97348.75;5039306;28;20205;-73
2023/01/03 04:28:30;;;;;;;3.13;1.63;;;;;;;8.61;100.00;97345.97;5039528;28;20209;-73
2023/01/03 04:30:56;;;;;;;2.47;1.63;;;;;;;8.57;100.00;97341.97;5038902;28;20224;-73
2023/01/03 04:33:23;;;;;;;3.90;1.70;;;;;;;8.60;100.00;97344.34;5037390;28;20212;-73
2023/01/03 04:35:49;;;;;;;3.67;1.60;;;;;;;8.65;100.00;97344.72;5038549;28;20584;-73
2023/01/03 04:38:17;;;;;;;4.70;1.60;;;;;;;8.64;100.00;97340.47;5038781;28;20670;-73
2023/01/03 04:40:44;;;;;;;3.50;2.20;;;;;;;8.58;100.00;97348.91;5038996;28;20233;-73
2023/01/03 04:45:55;;;;;;;3.33;1.60;;;;;;;8.64;100.00;97353.59;5038232;28;20204;-73
2023/01/03 04:48:21;;;;;;;2.63;1.63;;;;;;;8.63;100.00;97351.94;5039012;28;20228;-73
2023/01/03 04:50:52;;;;;;;5.10;1.77;;;;;;;8.80;100.00;97361.75;5039040;28;20225;-73
2023/01/03 04:53:20;;;;;;;2.30;1.60;;;;;;;8.69;100.00;97361.06;5038651;28;21116;-73
2023/01/03 04:55:47;;;;;;;4.87;1.93;;;;;;;8.63;100.00;97362.44;5037964;28;20212;-73
2023/01/03 04:58:14;;;;;;;2.70;1.80;;;;;;;8.63;100.00;97370.34;5038686;28;20240;-73
2023/01/03 05:00:40;;;;;;;4.13;1.47;;;;;;;8.57;100.00;97370.88;5038527;28;20248;-73
2023/01/03 05:03:07;;;;;;;2.37;1.50;;;;;;;8.51;100.00;97367.97;5038476;28;20205;-73
2023/01/03 05:05:36;;;;;;;3.10;1.60;;;;;;;8.49;100.00;97370.75;5037943;28;20220;-73
2023/01/03 05:08:04;;;;;;;3.00;1.80;;;;;;;8.60;100.00;97367.13;5038708;28;20573;-73
2023/01/03 05:10:31;;;;;;;2.37;1.50;;;;;;;8.65;100.00;97363.13;5038059;28;21040;-73
2023/01/03 05:12:59;;;;;;;3.40;1.43;;;;;;;8.60;100.00;97368.00;5038287;28;20197;-73
2023/01/03 05:15:26;;;;;;;3.80;1.73;;;;;;;8.58;100.00;97369.91;5037466;28;20677;-73
2023/01/03 05:17:52;;;;;;;2.67;1.37;;;;;;;8.59;100.00;97374.22;5038033;28;20213;-73
2023/01/03 05:25:58;;;;;;;2.67;1.70;;;;;;;8.70;100.00;97384.56;5038329;28;20289;-73
2023/01/03 05:28:24;;;;;;;2.37;1.30;;;;;;;8.60;100.00;97390.78;5037724;28;20209;-73
2023/01/03 05:30:51;;;;;;;2.63;1.57;;;;;;;8.61;100.00;97392.47;5037852;28;20724;-73
2023/01/03 05:33:17;;;;;;;3.20;1.53;;;;;;;8.66;100.00;97398.94;5038680;28;20246;-73
2023/01/03 05:35:46;;;;;;;4.23;1.77;;;;;;;8.74;100.00;97399.09;5037185;28;20208;-73
2023/01/03 05:38:12;;;;;;;3.60;1.60;;;;;;;8.58;100.00;97390.94;5037803;28;20613;-73
2023/01/03 05:40:39;;;;;;;2.77;1.80;;;;;;;8.52;100.00;97407.22;5038410;28;20228;-73
2023/01/03 05:43:07;;;;;;;4.37;2.00;;;;;;;8.70;100.00;97402.97;5037509;28;20205;-73
2023/01/03 05:45:35;;;;;;;2.40;1.80;;;;;;;8.65;100.00;97402.53;5036966;28;20233;-73
2023/01/03 05:48:01;;;;;;;2.83;1.70;;;;;;;8.50;100.00;97398.66;5037810;28;20212;-73
2023/01/03 05:50:28;;;;;;;3.93;2.10;;;;;;;8.58;100.00;97401.44;5037586;28;20221;-73
2023/01/03 05:52:54;;;;;;;3.00;1.80;;;;;;;8.56;100.00;97405.16;5037714;28;20209;-73
2023/01/03 05:55:21;;;;;;;2.27;1.63;;;;;;;8.56;100.00;97408.63;5037083;28;20205;-73
2023/01/03 05:57:47;;;;;;;2.77;1.97;;;;;;;8.53;100.00;97411.53;5037568;28;20220;-73
2023/01/03 06:00:16;;;;;;;3.17;1.80;;;;;;;8.65;100.00;97407.78;5036921;28;20808;-73
2023/01/03 06:02:42;;;;;;;6.60;2.33;;;;;;;8.57;100.00;97418.16;5037568;28;20205;-73
2023/01/03 06:05:09;;;;;;;3.73;2.07;;;;;;;8.64;100.00;97405.31;5036838;28;20212;-73
2023/01/03 06:07:36;;;;;;;2.77;2.03;;;;;;;8.57;100.00;97414.72;5037389;28;20212;-73
2023/01/03 06:10:03;;;;;;;5.30;1.80;;;;;;;8.63;100.00;97403.63;5037803;28;20236;-73
2023/01/03 06:12:30;;;;;;;2.97;2.10;;;;;;;8.56;100.00;97400.72;5037400;28;20300;-73
2023/01/03 06:14:56;;;;;;;4.23;1.90;;;;;;;8.43;100.00;97406.41;5036585;28;20201;-73
2023/01/03 06:20:09;;;;;;;4.20;2.10;;;;;;;8.39;100.00;97411.09;5036842;28;20235;-73
2023/01/03 06:22:36;;;;;;;2.70;1.60;;;;;;;8.43;100.00;97406.41;5036927;28;20220;-73
2023/01/03 06:25:02;;;;;;;3.60;2.40;;;;;;;8.46;100.00;97421.88;5036507;28;20696;-73
2023/01/03 06:27:29;;;;;;;2.43;2.10;;;;;;;8.55;100.00;97438.50;5037061;28;20205;-73
2023/01/03 06:29:56;;;;;;;2.80;1.83;;;;;;;8.52;100.00;97427.44;5036714;28;20228;-73
2023/01/03 06:32:24;;;;;;;4.30;2.10;;;;;;;8.52;100.00;97420.38;5039352;28;20213;-72
2023/01/03 06:34:50;;;;;;;4.10;1.60;;;;;;;8.40;100.00;97412.75;5037757;28;20205;-72
2023/01/03 06:37:17;;;;;;;2.80;1.80;;;;;;;8.42;100.00;97420.50;5038033;28;20205;-72
2023/01/03 06:39:44;;;;;;;3.43;2.13;;;;;;;8.43;100.00;97416.91;5039113;28;20228;-72
2023/01/03 06:53:13;;;;;;;5.10;2.20;;;;;;;8.72;100.00;97442.25;5038394;28;20224;-72
2023/01/03 06:55:40;;;;;;;4.60;2.07;;;;;;;8.62;100.00;97436.16;5038262;28;20216;-72
2023/01/03 06:58:06;;;;;;;2.63;2.00;;;;;;;8.61;100.00;97443.19;5037942;28;20738;-72
2023/01/03 07:00:34;;;;;;;3.20;2.20;;;;;;;8.54;100.00;97444.72;5037864;28;20235;-72
2023/01/03 07:03:02;;;;;;;6.77;2.60;;;;;;;8.57;100.00;97448.88;5038432;28;21271;-72
2023/01/03 07:05:29;;;;;;;2.90;2.10;;;;;;;8.52;100.00;97444.00;5037396;28;20200;-72
2023/01/03 07:07:55;;;;;;;3.73;2.27;;;;;;;8.52;100.00;97448.44;5038504;28;20604;-72
2023/01/03 07:10:22;;;;;;;2.97;1.90;;;;;;;8.59;100.00;97454.81;5037980;28;20221;-72
2023/01/03 07:15:33;;;;;;;4.07;2.23;;;;;;;8.50;100.00;97458.25;5036100;28;20265;-72
2023/01/03 07:17:59;;;;;;;3.67;2.20;;;;;;;8.37;100.00;97454.22;5037283;28;20779;-72
2023/01/03 07:20:27;;;;;;;2.87;2.10;;;;;;;8.26;100.00;97454.31;5036419;28;20287;-72
2023/01/03 07:22:53;;;;;;;5.03;2.80;;;;;;;8.22;100.00;97450.28;5037179;28;20201;-72
2023/01/03 07:25:20;;;;;;;5.47;2.30;;;;;;;8.36;100.00;97460.41;5037105;28;20216;-72
2023/01/03 07:27:55;;;;;;;4.43;2.63;;;;;;;8.51;100.00;97466.00;5037117;28;20480;-72
2023/01/03 07:30:21;;;;;;;4.23;2.20;;;;;;;8.45;100.00;97473.56;5036673;28;20248;-72
2023/01/03 07:32:48;;;;;;;4.67;2.40;;;;;;;8.44;100.00;97481.59;5037319;28;20208;-72
2023/01/03 07:35:14;;;;;;;3.37;2.53;;;;;;;8.50;100.00;97477.47;5035886;28;21143;-72
2023/01/03 07:37:42;;;;;;;2.93;2.23;;;;;;;8.56;100.00;97489.25;5036812;28;20205;-72
2023/01/03 07:40:10;;;;;;;3.33;2.30;;;;;;;8.58;100.00;97490.78;5037939;28;20255;-72
2023/01/03 07:45:20;;;;;;;4.43;2.53;;;;;;;8.33;100.00;97490.41;5035603;28;20216;-72
2023/01/03 07:47:47;;;;;;;3.70;2.53;;;;;;;8.44;100.00;97495.56;5040294;28;20204;-72
2023/01/03 07:50:13;;;;;;;4.33;2.70;;;;;;;8.55;100.00;97491.03;5040999;28;21006;-72
2023/01/03 07:52:41;;;;;;;4.70;2.77;;;;;;;8.58;100.00;97503.91;5040362;28;20201;-72
2023/01/03 07:55:08;;;;;;;3.50;2.17;;;;;;;8.67;100.00;97494.41;5040147;28;20212;-72
2023/01/03 07:57:35;;;;;;;9.60;2.70;;;;;;;8.68;100.00;97502.13;5040032;28;20221;-70
2023/01/03 08:00:02;;;;;;;5.60;2.77;;;;;;;8.65;100.00;97506.81;5040326;28;20244;-71
2023/01/03 08:02:28;;;;;;;5.50;2.97;;;;;;;8.62;100.00;97512.34;5039791;28;20583;-71
2023/01/03 08:04:55;;;;;;;6.30;3.07;;;;;;;8.60;100.00;97514.28;5039074;28;20228;-71
2023/01/03 08:07:21;;;;;;;8.80;4.00;;;;;;;8.58;100.00;97500.47;5039659;28;20209;-71
2023/01/03 08:15:17;;;;;;;6.60;3.50;;;;;;;8.62;100.00;97518.44;5038990;28;20261;-71
2023/01/03 08:17:43;;;;;;;7.53;4.00;;;;;;;8.64;100.00;97521.78;5040070;28;20201;-71
2023/01/03 08:20:10;;;;;;;7.23;3.80;;;;;;;8.66;100.00;97508.50;5040180;28;20244;-71
2023/01/03 08:22:36;;;;;;;8.20;4.30;;;;;;;8.59;100.00;97512.59;5039902;28;20216;-71
2023/01/03 08:25:05;;;;;;;7.63;4.10;;;;;;;8.57;100.00;97506.66;5038899;28;20998;-71
2023/01/03 08:27:31;;;;;;;8.87;4.43;;;;;;;8.58;100.00;97508.34;5039903;28;20220;-71
2023/01/03 08:29:58;;;;;;;11.53;4.30;;;;;;;8.73;100.00;97517.47;5040010;28;20216;-71
2023/01/03 08:32:24;;;;;;;7.47;4.17;;;;;;;8.82;100.00;97516.66;5039820;28;20209;-71
2023/01/03 08:34:53;;;;;;;9.03;4.00;;;;;;;8.85;100.00;97519.88;5039699;28;20205;-71
2023/01/03 08:37:20;;;;;;;7.23;4.20;;;;;;;8.97;100.00;97524.03;5039755;28;20209;-71
2023/01/03 08:39:55;;;;;;;8.17;4.10;;;;;;;9.09;100.00;97520.31;5039431;28;20222;-71
2023/01/03 08:42:24;;;;;;;5.93;3.47;;;;;;;9.17;100.00;97518.66;5039827;28;20223;-71
2023/01/03 08:44:58;;;;;;;6.47;3.40;;;;;;;9.22;100.00;97519.06;5039359;28;20854;-71
2023/01/03 08:47:25;;;;;;;6.10;3.43;;;;;;;9.10;100.00;97535.97;5039123;28;20213;-71
2023/01/03 08:49:51;;;;;;;6.30;3.50;;;;;;;9.12;100.00;97527.94;5039235;28;20706;-71
2023/01/03 08:52:18;;;;;;;7.53;3.50;;;;;;;9.12;100.00;97531.38;5040790;28;20208;-71
2023/01/03 08:54:44;;;;;;;6.07;3.33;;;;;;;9.05;100.00;97526.84;5038556;28;20708;-71
2023/01/03 08:57:11;;;;;;;9.37;3.80;;;;;;;9.08;100.00;97531.81;5038497;28;20213;-71
2023/01/03 08:59:38;;;;;;;7.53;3.80;;;;;;;9.23;100.00;97531.25;5039322;28;20201;-71
2023/01/03 09:02:05;;;;;;;4.90;3.27;;;;;;;9.14;100.00;97526.84;5039267;28;20236;-73
2023/01/03 09:04:32;;;;;;;5.53;3.60;;;;;;;9.09;100.00;97530.84;5037569;28;20208;-73
2023/01/03 09:06:58;;;;;;;8.00;3.70;;;;;;;9.08;100.00;97533.63;5039269;28;20203;-73
2023/01/03 09:09:24;;;;;;;6.83;3.70;;;;;;;9.11;100.00;97527.13;5038690;28;21050;-73
2023/01/03 09:11:51;;;;;;;5.97;3.47;;;;;;;9.19;100.00;97529.88;5038844;28;20217;-73
2023/01/03 09:14:18;;;;;;;5.47;3.60;;;;;;;9.21;100.00;97537.63;5038457;28;20209;-73
2023/01/03 09:16:45;;;;;;;8.77;3.47;;;;;;;9.29;100.00;97546.50;5038654;28;20206;-73
2023/01/03 09:19:12;;;;;;;6.30;3.60;;;;;;;9.21;100.00;97548.16;5038459;28;20201;-71
2023/01/03 09:21:38;;;;;;;6.77;3.60;;;;;;;9.30;100.00;97555.22;5038817;28;20225;-73
2023/01/03 09:24:05;;;;;;;8.60;3.37;;;;;;;9.40;100.00;97553.44;5038453;28;20213;-71
2023/01/03 09:26:32;;;;;;;5.27;3.70;;;;;;;9.35;100.00;97545.94;5038771;28;20255;-73
2023/01/03 09:28:58;;;;;;;5.90;3.23;;;;;;;9.49;100.00;97547.34;5038534;28;20197;-73
2023/01/03 09:31:25;;;;;;;7.37;3.53;;;;;;;9.65;100.00;97547.59;5038677;28;20224;-73
2023/01/03 09:33:53;;;;;;;5.40;2.83;;;;;;;9.88;100.00;97545.34;5038436;28;20198;-73
2023/01/03 09:36:19;;;;;;;3.97;2.60;;;;;;;9.72;100.00;97547.75;5038433;28;20208;-71
2023/01/03 09:38:46;;;;;;;5.20;2.60;;;;;;;9.76;100.00;97551.75;5038546;28;20678;-73
2023/01/03 09:41:19;;;;;;;4.87;2.70;;;;;;;9.99;100.00;97537.34;5039255;28;20697;-73
2023/01/03 09:43:49;;;;;;;3.17;1.90;;;;;;;9.99;100.00;97541.75;5038724;28;20213;-72
2023/01/03 09:46:18;;;;;;;5.27;2.37;;;;;;;9.92;100.00;97551.19;5040063;28;20220;-73
2023/01/03 09:48:47;;;;;;;3.80;2.13;;;;;;;9.97;100.00;97544.53;5040163;28;20201;-73
2023/01/03 10:05:55;;;;;;;4.20;2.30;;;;;;;9.91;100.00;97541.59;5040743;28;20227;-73
2023/01/03 10:08:37;;;;;;;3.60;2.33;;;;;;;10.01;100.00;97534.56;5041481;28;20200;-73
2023/01/03 10:11:07;;;;;;;8.67;2.57;;;;;;;9.93;100.00;97537.03;5040372;28;20228;-72
2023/01/03 10:13:51;;;;;;;4.50;2.30;;;;;;;9.96;100.00;97542.88;5041321;28;20205;-72
2023/01/03 10:16:31;;;;;;;5.90;2.27;;;;;;;9.82;100.00;97548.53;5040736;28;20216;-72
2023/01/03 10:19:17;;;;;;;5.70;2.97;;;;;;;9.67;100.00;97550.94;5041226;28;20212;-72
2023/01/03 10:21:54;;;;;;;5.37;2.90;;;;;;;9.63;100.00;97555.63;5041636;28;20224;-72
2023/01/03 10:24:24;;;;;;;4.73;2.73;;;;;;;9.53;100.00;97540.81;5041373;28;20621;-72
2023/01/03 10:26:53;;;;;;;3.73;2.30;;;;;;;9.42;100.00;97549.69;5040616;28;20212;-72
2023/01/03 10:29:20;;;;;;;4.50;2.70;;;;;;;9.37;100.00;97559.78;5041574;28;20209;-72
2023/01/03 10:32:02;;;;;;;6.20;3.20;;;;;;;9.65;100.00;97556.34;5040952;28;20204;-72
2023/01/03 10:34:29;;;;;;;6.63;2.80;;;;;;;9.56;100.00;97559.81;5041303;28;20205;-72
2023/01/03 10:36:55;;;;;;;8.40;2.90;;;;;;;9.52;100.00;97555.78;5040410;28;20209;-72
2023/01/03 10:39:30;;;;;;;6.80;2.97;;;;;;;9.70;100.00;97552.31;5041350;28;20201;-72
2023/01/03 10:41:58;;;;;;;6.20;2.90;;;;;;;9.48;100.00;97551.78;5042314;28;20254;-72
2023/01/03 10:44:27;;;;;;;5.70;3.20;;;;;;;9.67;100.00;97557.00;5041275;28;20231;-72
2023/01/03 10:46:56;;;;;;;5.00;3.10;;;;;;;9.76;100.00;97562.28;5042728;28;20194;-72
2023/01/03 10:49:25;;;;;;;5.53;3.40;;;;;;;9.73;100.00;97549.38;5042488;28;20225;-72
2023/01/03 10:51:57;;;;;;;6.87;2.67;;;;;;;9.73;100.00;97551.19;5042322;28;20201;-72
2023/01/03 10:54:29;;;;;;;4.83;3.27;;;;;;;9.70;100.00;97551.50;5038167;28;20201;-72
2023/01/03 10:56:56;;;;;;;6.00;2.80;;;;;;;9.72;100.00;97555.66;5036646;28;20212;-72
2023/01/03 10:59:25;;;;;;;5.30;2.80;;;;;;;9.86;99.89;97547.31;5036276;28;20205;-72
2023/01/03 11:02:00;;;;;;;9.63;2.87;;;;;;;10.05;99.21;97542.03;5036469;28;20240;-71
2023/01/03 11:04:28;;;;;;;5.20;2.90;;;;;;;9.93;100.00;97540.50;5036707;28;20225;-71
2023/01/03 11:07:04;;;;;;;4.83;2.63;;;;;;;10.15;99.62;97542.00;5036114;28;21005;-71
2023/01/03 11:09:41;;;;;;;4.47;2.93;;;;;;;10.18;98.12;97541.72;5035907;28;20220;-71
2023/01/03 11:12:13;;;;;;;6.30;3.10;;;;;;;10.21;97.57;97528.25;5037971;28;20214;-71
2023/01/03 11:14:49;;;;;;;4.47;2.73;;;;;;;10.31;97.61;97527.28;5035500;28;20300;-71
2023/01/03 11:17:18;;;;;;;4.27;2.53;;;;;;;10.08;95.09;97531.22;5036254;28;20209;-71
2023/01/03 11:19:45;;;;;;;4.13;2.50;;;;;;;10.26;93.94;97531.28;5036358;28;20225;-71
2023/01/03 11:22:18;;;;;;;3.20;2.00;;;;;;;10.30;92.71;97536.13;5038689;28;20704;-71
2023/01/03 11:25:05;;;;;;;3.40;2.10;;;;;;;10.21;92.43;97526.47;5039716;28;20197;-71
2023/01/03 11:27:57;;;;;;;3.73;2.30;;;;;;;10.33;93.62;97520.88;5040596;28;20205;-71
2023/01/03 11:30:32;;;;;;;7.87;2.70;;;;;;;10.45;92.95;97513.59;5040276;28;20225;-71
2023/01/03 11:33:15;;;;;;;7.43;2.77;;;;;;;10.28;94.53;97517.00;5040314;28;20197;-71
2023/01/03 11:35:59;;;;;;;7.07;3.00;;;;;;;10.64;92.56;97513.50;5039620;28;20197;-71
2023/01/03 11:38:44;;;;;;;7.03;2.90;;;;;;;10.50;93.22;97514.84;5040083;28;20212;-71
2023/01/03 11:41:24;;;;;;;6.17;3.13;;;;;;;10.47;94.42;97506.38;5037459;28;20239;-71
2023/01/03 11:44:04;;;;;;;3.97;2.63;;;;;;;10.61;94.17;97503.25;5039511;28;20209;-72
2023/01/03 11:46:43;;;;;;;4.37;3.07;;;;;;;10.62;92.96;97515.47;5039744;28;20205;-71
2023/01/03 11:49:33;;;;;;;3.70;2.53;;;;;;;10.53;94.36;97505.81;5040175;28;20205;-71
2023/01/03 11:52:15;;;;;;;2.93;2.30;;;;;;;10.55;93.70;97499.41;5040130;28;20288;-71
2023/01/03 11:55:10;;;;;;;8.33;2.50;;;;;;;10.62;94.35;97494.38;5038721;28;20205;-71
2023/01/03 11:57:47;;;;;;;4.40;2.50;;;;;;;10.50;94.60;97500.81;5036100;28;20213;-71
2023/01/03 12:00:22;;;;;;;4.27;2.60;;;;;;;10.48;95.34;97497.50;5039492;28;20239;-71
2023/01/03 12:03:02;;;;;;;4.50;2.10;;;;;;;10.45;95.34;97498.63;5038832;28;20223;-71
2023/01/03 12:05:39;;;;;;;5.93;2.67;;;;;;;10.45;96.42;97493.34;5037338;28;20205;-71
2023/01/03 12:08:21;;;;;;;6.00;1.93;;;;;;;11.24;100.00;97492.56;5039730;28;20399;-71
2023/01/03 12:10:56;;;;;;;7.63;2.80;;;;;;;11.57;100.00;97498.84;5038996;28;20221;-71
2023/01/03 12:13:31;;;;;;;5.53;2.60;;;;;;;11.92;100.00;97493.50;5039590;28;20215;-72
2023/01/03 12:16:02;;;;;;;8.07;2.57;;;;;;;12.39;98.48;97495.59;5038105;28;20201;-71
2023/01/03 12:18:42;;;;;;;5.47;2.60;;;;;;;12.20;90.99;97493.19;5038567;28;20238;-72
2023/01/03 12:21:12;;;;;;;4.23;2.50;;;;;;;11.85;89.71;97487.19;5039265;28;20232;-71
2023/01/03 12:23:43;;;;;;;4.70;2.60;;;;;;;11.65;87.97;97490.19;5039438;28;20190;-71
2023/01/03 12:26:13;;;;;;;4.40;2.60;;;;;;;11.42;87.59;97496.03;5038943;28;20205;-71
2023/01/03 12:28:42;;;;;;;3.47;2.10;;;;;;;11.47;87.78;97481.41;5038998;28;20292;-72
2023/01/03 12:31:21;;;;;;;3.37;2.43;;;;;;;11.60;88.30;97485.34;5039174;28;20283;-71
2023/01/03 12:33:59;;;;;;;3.93;2.47;;;;;;;11.76;87.07;97484.63;5038018;28;20201;-71
2023/01/03 12:36:36;;;;;;;5.77;2.40;;;;;;;11.69;88.37;97494.16;5038113;28;20259;-71
2023/01/03 12:39:14;;;;;;;6.20;2.67;;;;;;;11.59;88.19;97488.13;5037124;28;20212;-71
2023/01/03 12:41:46;;;;;;;5.80;2.30;;;;;;;11.55;88.40;97483.34;5037155;28;20671;-72
2023/01/03 12:44:20;;;;;;;3.10;2.37;;;;;;;11.59;88.04;97486.31;5037015;28;20208;-71
2023/01/03 12:46:50;;;;;;;7.17;2.47;;;;;;;11.44;88.25;97479.06;5039031;28;20197;-72
2023/01/03 12:49:23;;;;;;;6.13;2.67;;;;;;;11.24;88.97;97482.84;5035289;28;20204;-71
2023/01/03 12:51:50;;;;;;;3.53;2.23;;;;;;;10.93;89.11;97489.47;5039465;28;20201;-71
2023/01/03 12:54:27;;;;;;;4.07;2.60;;;;;;;10.84;91.07;97486.88;5036718;28;20693;-71
2023/01/03 12:57:05;;;;;;;4.17;2.50;;;;;;;10.38;92.58;97487.00;5038105;28;20216;-72
2023/01/03 12:59:50;;;;;;;6.27;2.60;;;;;;;10.19;95.87;97488.06;5034606;28;20694;-72